sensor_id;sensor_type;location;lat;lon;timestamp;temperature;humidity
8109;DHT22;4097;47.812;12.374;2022-11-28T00:02:18;1.60;99.90
8109;DHT22;4097;47.812;12.374;2022-11-28T00:04:47;1.60;99.90
8109;DHT22;4097;47.812;12.374;2022-11-28T00:07:15;1.60;99.90
8109;DHT22;4097;47.812;12.374;2022-11-28T00:09:42;1.50;99.90
8109;DHT22;4097;47.812;12.374;2022-11-28T00:12:09;1.60;99.90
8109;DHT22;4097;47.812;12.374;2022-11-28T00:14:36;1.50;99.90
8109;DHT22;4097;47.812;12.374;2022-11-28T00:17:04;1.50;99.90
8109;DHT22;4097;47.812;12.374;2022-11-28T00:19:31;1.60;99.90
8109;DHT22;4097;47.812;12.374;2022-11-28T00:21:58;1.50;99.90
8109;DHT22;4097;47.812;12.374;2022-11-28T00:24:25;1.50;99.90
8109;DHT22;4097;47.812;12.374;2022-11-28T00:26:52;1.50;99.90
8109;DHT22;4097;47.812;12.374;2022-11-28T00:29:19;1.50;99.90
8109;DHT22;4097;47.812;12.374;2022-11-28T00:31:46;1.60;99.90
8109;DHT22;4097;47.812;12.374;2022-11-28T00:34:14;1.70;99.90
8109;DHT22;4097;47.812;12.374;2022-11-28T00:36:45;1.70;99.90
8109;DHT22;4097;47.812;12.374;2022-11-28T00:39:13;1.60;99.90
8109;DHT22;4097;47.812;12.374;2022-11-28T00:41:40;1.70;99.90
8109;DHT22;4097;47.812;12.374;2022-11-28T00:44:07;1.70;99.90
8109;DHT22;4097;47.812;12.374;2022-11-28T00:46:34;1.70;99.90
8109;DHT22;4097;47.812;12.374;2022-11-28T00:49:01;1.80;99.90
8109;DHT22;4097;47.812;12.374;2022-11-28T00:51:30;1.70;99.90
8109;DHT22;4097;47.812;12.374;2022-11-28T00:53:59;1.70;99.90
8109;DHT22;4097;47.812;12.374;2022-11-28T00:56:27;1.80;99.90
8109;DHT22;4097;47.812;12.374;2022-11-28T00:58:55;1.80;99.90
8109;DHT22;4097;47.812;12.374;2022-11-28T01:01:24;1.80;99.90
8109;DHT22;4097;47.812;12.374;2022-11-28T01:03:53;1.80;99.90
8109;DHT22;4097;47.812;12.374;2022-11-28T01:06:21;1.90;99.90
8109;DHT22;4097;47.812;12.374;2022-11-28T01:08:50;1.90;99.90
8109;DHT22;4097;47.812;12.374;2022-11-28T01:11:18;1.90;99.90
8109;DHT22;4097;47.812;12.374;2022-11-28T01:13:45;1.90;99.90
8109;DHT22;4097;47.812;12.374;2022-11-28T01:16:12;2.00;99.90
8109;DHT22;4097;47.812;12.374;2022-11-28T01:18:39;1.90;99.90
8109;DHT22;4097;47.812;12.374;2022-11-28T01:21:07;2.00;99.90
8109;DHT22;4097;47.812;12.374;2022-11-28T01:23:34;2.00;99.90
8109;DHT22;4097;47.812;12.374;2022-11-28T01:26:04;2.00;99.90
8109;DHT22;4097;47.812;12.374;2022-11-28T01:28:32;2.10;99.90
8109;DHT22;4097;47.812;12.374;2022-11-28T01:31:02;2.10;99.90
8109;DHT22;4097;47.812;12.374;2022-11-28T01:33:30;2.10;99.90
8109;DHT22;4097;47.812;12.374;2022-11-28T01:35:57;2.10;99.90
8109;DHT22;4097;47.812;12.374;2022-11-28T01:38:26;2.10;99.90
8109;DHT22;4097;47.812;12.374;2022-11-28T01:40:54;2.10;99.90
8109;DHT22;4097;47.812;12.374;2022-11-28T01:43:23;2.10;99.90
8109;DHT22;4097;47.812;12.374;2022-11-28T01:45:50;2.20;99.90
8109;DHT22;4097;47.812;12.374;2022-11-28T01:48:22;2.20;99.90
8109;DHT22;4097;47.812;12.374;2022-11-28T01:50:51;2.20;99.90
8109;DHT22;4097;47.812;12.374;2022-11-28T01:53:20;2.20;99.90
8109;DHT22;4097;47.812;12.374;2022-11-28T01:55:53;2.20;99.90
8109;DHT22;4097;47.812;12.374;2022-11-28T01:58:23;2.20;99.90
8109;DHT22;4097;47.812;12.374;2022-11-28T02:00:51;2.10;99.90
8109;DHT22;4097;47.812;12.374;2022-11-28T02:03:22;2.10;99.90
8109;DHT22;4097;47.812;12.374;2022-11-28T02:05:50;2.10;99.90
8109;DHT22;4097;47.812;12.374;2022-11-28T02:08:18;2.10;99.90
8109;DHT22;4097;47.812;12.374;2022-11-28T02:11:00;2.10;99.90
8109;DHT22;4097;47.812;12.374;2022-11-28T02:13:40;2.10;99.90
8109;DHT22;4097;47.812;12.374;2022-11-28T02:16:23;2.10;99.90
8109;DHT22;4097;47.812;12.374;2022-11-28T02:19:03;2.00;99.90
8109;DHT22;4097;47.812;12.374;2022-11-28T02:21:40;2.10;99.90
8109;DHT22;4097;47.812;12.374;2022-11-28T02:24:38;2.10;99.90
8109;DHT22;4097;47.812;12.374;2022-11-28T02:27:22;2.10;99.90
8109;DHT22;4097;47.812;12.374;2022-11-28T02:30:16;2.00;99.90
8109;DHT22;4097;47.812;12.374;2022-11-28T02:32:52;2.10;99.90
8109;DHT22;4097;47.812;12.374;2022-11-28T02:35:23;2.10;99.90
8109;DHT22;4097;47.812;12.374;2022-11-28T02:38:00;2.00;99.90
8109;DHT22;4097;47.812;12.374;2022-11-28T02:40:35;2.10;99.90
8109;DHT22;4097;47.812;12.374;2022-11-28T02:43:10;2.10;99.90
8109;DHT22;4097;47.812;12.374;2022-11-28T02:45:43;2.10;99.90
8109;DHT22;4097;47.812;12.374;2022-11-28T02:48:18;2.20;99.90
8109;DHT22;4097;47.812;12.374;2022-11-28T02:50:54;2.20;99.90
8109;DHT22;4097;47.812;12.374;2022-11-28T02:53:23;2.20;99.90
8109;DHT22;4097;47.812;12.374;2022-11-28T02:55:51;2.20;99.90
8109;DHT22;4097;47.812;12.374;2022-11-28T02:58:18;2.20;99.90
8109;DHT22;4097;47.812;12.374;2022-11-28T03:00:46;2.30;99.90
8109;DHT22;4097;47.812;12.374;2022-11-28T03:03:32;2.30;99.90
8109;DHT22;4097;47.812;12.374;2022-11-28T03:06:08;2.30;99.90
8109;DHT22;4097;47.812;12.374;2022-11-28T03:08:50;2.40;99.90
8109;DHT22;4097;47.812;12.374;2022-11-28T03:11:30;2.40;99.90
8109;DHT22;4097;47.812;12.374;2022-11-28T03:14:07;2.40;99.90
8109;DHT22;4097;47.812;12.374;2022-11-28T03:16:45;2.40;99.90
8109;DHT22;4097;47.812;12.374;2022-11-28T03:19:23;2.40;99.90
8109;DHT22;4097;47.812;12.374;2022-11-28T03:22:00;2.40;99.90
8109;DHT22;4097;47.812;12.374;2022-11-28T03:24:34;2.40;99.90
8109;DHT22;4097;47.812;12.374;2022-11-28T03:27:06;2.40;99.90
8109;DHT22;4097;47.812;12.374;2022-11-28T03:29:39;2.40;99.90
8109;DHT22;4097;47.812;12.374;2022-11-28T03:32:10;2.30;99.90
8109;DHT22;4097;47.812;12.374;2022-11-28T03:34:42;2.20;99.90
8109;DHT22;4097;47.812;12.374;2022-11-28T03:37:15;2.10;99.90
8109;DHT22;4097;47.812;12.374;2022-11-28T03:39:48;2.10;99.90
8109;DHT22;4097;47.812;12.374;2022-11-28T03:42:19;2.00;99.90
8109;DHT22;4097;47.812;12.374;2022-11-28T03:44:50;2.00;99.90
8109;DHT22;4097;47.812;12.374;2022-11-28T03:47:19;2.00;99.90
8109;DHT22;4097;47.812;12.374;2022-11-28T03:49:51;2.00;99.90
8109;DHT22;4097;47.812;12.374;2022-11-28T03:52:24;2.00;99.90
8109;DHT22;4097;47.812;12.374;2022-11-28T03:54:55;2.00;99.90
8109;DHT22;4097;47.812;12.374;2022-11-28T03:57:27;2.00;99.90
8109;DHT22;4097;47.812;12.374;2022-11-28T04:00:01;2.00;99.90
8109;DHT22;4097;47.812;12.374;2022-11-28T04:02:33;1.90;99.90
8109;DHT22;4097;47.812;12.374;2022-11-28T04:05:10;1.80;99.90
8109;DHT22;4097;47.812;12.374;2022-11-28T04:07:44;1.80;99.90
8109;DHT22;4097;47.812;12.374;2022-11-28T04:10:16;1.90;99.90
8109;DHT22;4097;47.812;12.374;2022-11-28T04:12:52;2.00;99.90
8109;DHT22;4097;47.812;12.374;2022-11-28T04:15:25;2.00;99.90
8109;DHT22;4097;47.812;12.374;2022-11-28T04:17:59;2.00;99.90
8109;DHT22;4097;47.812;12.374;2022-11-28T04:20:34;2.00;99.90
8109;DHT22;4097;47.812;12.374;2022-11-28T04:23:05;2.10;99.90
8109;DHT22;4097;47.812;12.374;2022-11-28T04:25:36;2.10;99.90
8109;DHT22;4097;47.812;12.374;2022-11-28T04:28:07;2.20;99.90
8109;DHT22;4097;47.812;12.374;2022-11-28T04:30:36;2.20;99.90
8109;DHT22;4097;47.812;12.374;2022-11-28T04:33:06;2.20;99.90
8109;DHT22;4097;47.812;12.374;2022-11-28T04:35:40;2.20;99.90
8109;DHT22;4097;47.812;12.374;2022-11-28T04:38:10;2.30;99.90
8109;DHT22;4097;47.812;12.374;2022-11-28T04:40:41;2.30;99.90
8109;DHT22;4097;47.812;12.374;2022-11-28T04:43:14;2.30;99.90
8109;DHT22;4097;47.812;12.374;2022-11-28T04:45:45;2.30;99.90
8109;DHT22;4097;47.812;12.374;2022-11-28T04:48:15;2.20;99.90
8109;DHT22;4097;47.812;12.374;2022-11-28T04:50:49;2.30;99.90
8109;DHT22;4097;47.812;12.374;2022-11-28T04:53:21;2.30;99.90
8109;DHT22;4097;47.812;12.374;2022-11-28T04:55:54;2.30;99.90
8109;DHT22;4097;47.812;12.374;2022-11-28T04:58:27;2.40;99.90
8109;DHT22;4097;47.812;12.374;2022-11-28T05:00:56;2.40;99.90
8109;DHT22;4097;47.812;12.374;2022-11-28T05:03:26;2.30;99.90
8109;DHT22;4097;47.812;12.374;2022-11-28T05:05:55;2.40;99.90
8109;DHT22;4097;47.812;12.374;2022-11-28T05:08:22;2.40;99.90
8109;DHT22;4097;47.812;12.374;2022-11-28T05:10:49;2.40;99.90
8109;DHT22;4097;47.812;12.374;2022-11-28T05:13:16;2.30;99.90
8109;DHT22;4097;47.812;12.374;2022-11-28T05:15:43;2.30;99.90
8109;DHT22;4097;47.812;12.374;2022-11-28T05:18:10;2.40;99.90
8109;DHT22;4097;47.812;12.374;2022-11-28T05:20:39;2.40;99.90
8109;DHT22;4097;47.812;12.374;2022-11-28T05:23:12;2.40;99.90
8109;DHT22;4097;47.812;12.374;2022-11-28T05:25:38;2.30;99.90
8109;DHT22;4097;47.812;12.374;2022-11-28T05:28:06;2.40;99.90
8109;DHT22;4097;47.812;12.374;2022-11-28T05:30:33;2.40;99.90
8109;DHT22;4097;47.812;12.374;2022-11-28T05:33:00;2.40;99.90
8109;DHT22;4097;47.812;12.374;2022-11-28T05:35:27;2.40;99.90
8109;DHT22;4097;47.812;12.374;2022-11-28T05:37:54;2.40;99.90
8109;DHT22;4097;47.812;12.374;2022-11-28T05:40:25;2.40;99.90
8109;DHT22;4097;47.812;12.374;2022-11-28T05:42:52;2.30;99.90
8109;DHT22;4097;47.812;12.374;2022-11-28T05:45:19;2.30;99.90
8109;DHT22;4097;47.812;12.374;2022-11-28T05:47:46;2.30;99.90
8109;DHT22;4097;47.812;12.374;2022-11-28T05:50:18;2.30;99.90
8109;DHT22;4097;47.812;12.374;2022-11-28T05:52:45;2.30;99.90
8109;DHT22;4097;47.812;12.374;2022-11-28T05:55:12;2.40;99.90
8109;DHT22;4097;47.812;12.374;2022-11-28T05:57:40;2.30;99.90
8109;DHT22;4097;47.812;12.374;2022-11-28T06:00:11;2.40;99.90
8109;DHT22;4097;47.812;12.374;2022-11-28T06:02:39;2.50;99.90
8109;DHT22;4097;47.812;12.374;2022-11-28T06:05:06;2.50;99.90
8109;DHT22;4097;47.812;12.374;2022-11-28T06:07:33;2.50;99.90
8109;DHT22;4097;47.812;12.374;2022-11-28T06:10:04;2.50;99.90
8109;DHT22;4097;47.812;12.374;2022-11-28T06:12:31;2.50;99.90
8109;DHT22;4097;47.812;12.374;2022-11-28T06:15:00;2.40;99.90
8109;DHT22;4097;47.812;12.374;2022-11-28T06:17:27;2.50;99.90
8109;DHT22;4097;47.812;12.374;2022-11-28T06:19:57;2.50;99.90
8109;DHT22;4097;47.812;12.374;2022-11-28T06:22:24;2.50;99.90
8109;DHT22;4097;47.812;12.374;2022-11-28T06:24:51;2.50;99.90
8109;DHT22;4097;47.812;12.374;2022-11-28T06:27:18;2.30;99.90
8109;DHT22;4097;47.812;12.374;2022-11-28T06:29:51;2.30;99.90
8109;DHT22;4097;47.812;12.374;2022-11-28T06:32:19;2.40;99.90
8109;DHT22;4097;47.812;12.374;2022-11-28T06:34:46;2.20;99.90
8109;DHT22;4097;47.812;12.374;2022-11-28T06:37:13;2.30;99.90
8109;DHT22;4097;47.812;12.374;2022-11-28T06:39:54;2.20;99.90
8109;DHT22;4097;47.812;12.374;2022-11-28T06:42:21;2.20;99.90
8109;DHT22;4097;47.812;12.374;2022-11-28T06:44:48;2.30;99.90
8109;DHT22;4097;47.812;12.374;2022-11-28T06:47:14;2.30;99.90
8109;DHT22;4097;47.812;12.374;2022-11-28T06:49:58;2.20;99.90
8109;DHT22;4097;47.812;12.374;2022-11-28T06:52:25;2.20;99.90
8109;DHT22;4097;47.812;12.374;2022-11-28T06:54:52;2.20;99.90
8109;DHT22;4097;47.812;12.374;2022-11-28T06:57:19;2.30;99.90
8109;DHT22;4097;47.812;12.374;2022-11-28T06:59:49;2.30;99.90
8109;DHT22;4097;47.812;12.374;2022-11-28T07:02:16;2.40;99.90
8109;DHT22;4097;47.812;12.374;2022-11-28T07:04:43;2.40;99.90
8109;DHT22;4097;47.812;12.374;2022-11-28T07:07:12;2.40;99.90
8109;DHT22;4097;47.812;12.374;2022-11-28T07:09:42;2.40;99.90
8109;DHT22;4097;47.812;12.374;2022-11-28T07:12:08;2.30;99.90
8109;DHT22;4097;47.812;12.374;2022-11-28T07:14:35;2.20;99.90
8109;DHT22;4097;47.812;12.374;2022-11-28T07:17:02;2.20;99.90
8109;DHT22;4097;47.812;12.374;2022-11-28T07:19:38;2.30;99.90
8109;DHT22;4097;47.812;12.374;2022-11-28T07:22:05;2.20;99.90
8109;DHT22;4097;47.812;12.374;2022-11-28T07:24:34;2.30;99.90
8109;DHT22;4097;47.812;12.374;2022-11-28T07:27:00;2.30;99.90
8109;DHT22;4097;47.812;12.374;2022-11-28T07:29:36;2.40;99.90
8109;DHT22;4097;47.812;12.374;2022-11-28T07:32:04;2.40;99.90
8109;DHT22;4097;47.812;12.374;2022-11-28T07:34:33;2.30;99.90
8109;DHT22;4097;47.812;12.374;2022-11-28T07:37:00;2.40;99.90
8109;DHT22;4097;47.812;12.374;2022-11-28T07:39:30;2.30;99.90
8109;DHT22;4097;47.812;12.374;2022-11-28T07:41:58;2.40;99.90
8109;DHT22;4097;47.812;12.374;2022-11-28T07:44:25;2.50;99.90
8109;DHT22;4097;47.812;12.374;2022-11-28T07:46:54;2.60;99.90
8109;DHT22;4097;47.812;12.374;2022-11-28T07:49:23;2.70;99.90
8109;DHT22;4097;47.812;12.374;2022-11-28T07:51:50;2.80;99.90
8109;DHT22;4097;47.812;12.374;2022-11-28T07:54:18;2.80;99.90
8109;DHT22;4097;47.812;12.374;2022-11-28T07:56:44;2.90;99.90
8109;DHT22;4097;47.812;12.374;2022-11-28T07:59:16;2.90;99.90
8109;DHT22;4097;47.812;12.374;2022-11-28T08:01:43;3.00;99.90
8109;DHT22;4097;47.812;12.374;2022-11-28T08:04:09;3.00;99.90
8109;DHT22;4097;47.812;12.374;2022-11-28T08:06:38;3.00;99.90
8109;DHT22;4097;47.812;12.374;2022-11-28T08:09:11;3.10;99.90
8109;DHT22;4097;47.812;12.374;2022-11-28T08:11:39;3.10;99.90
8109;DHT22;4097;47.812;12.374;2022-11-28T08:14:06;3.10;99.90
8109;DHT22;4097;47.812;12.374;2022-11-28T08:16:34;3.10;99.90
8109;DHT22;4097;47.812;12.374;2022-11-28T08:19:07;3.20;99.90
8109;DHT22;4097;47.812;12.374;2022-11-28T08:21:34;3.20;99.90
8109;DHT22;4097;47.812;12.374;2022-11-28T08:24:02;3.20;99.90
8109;DHT22;4097;47.812;12.374;2022-11-28T08:26:30;3.30;99.90
8109;DHT22;4097;47.812;12.374;2022-11-28T08:29:01;3.30;99.90
8109;DHT22;4097;47.812;12.374;2022-11-28T08:31:30;3.40;99.90
8109;DHT22;4097;47.812;12.374;2022-11-28T08:34:00;3.40;99.90
8109;DHT22;4097;47.812;12.374;2022-11-28T08:36:28;3.40;99.90
8109;DHT22;4097;47.812;12.374;2022-11-28T08:38:59;3.50;99.90
8109;DHT22;4097;47.812;12.374;2022-11-28T08:41:26;3.50;99.90
8109;DHT22;4097;47.812;12.374;2022-11-28T08:43:54;3.50;99.90
8109;DHT22;4097;47.812;12.374;2022-11-28T08:46:21;3.60;99.90
8109;DHT22;4097;47.812;12.374;2022-11-28T08:48:59;3.50;99.90
8109;DHT22;4097;47.812;12.374;2022-11-28T08:51:27;3.50;99.90
8109;DHT22;4097;47.812;12.374;2022-11-28T08:53:55;3.50;99.90
8109;DHT22;4097;47.812;12.374;2022-11-28T08:56:22;3.60;99.90
8109;DHT22;4097;47.812;12.374;2022-11-28T08:58:55;3.60;99.90
8109;DHT22;4097;47.812;12.374;2022-11-28T09:01:24;3.60;99.90
8109;DHT22;4097;47.812;12.374;2022-11-28T09:03:51;3.60;99.90
8109;DHT22;4097;47.812;12.374;2022-11-28T09:06:21;3.70;99.90
8109;DHT22;4097;47.812;12.374;2022-11-28T09:08:54;3.70;99.90
8109;DHT22;4097;47.812;12.374;2022-11-28T09:11:24;3.70;99.90
8109;DHT22;4097;47.812;12.374;2022-11-28T09:13:51;3.70;99.90
8109;DHT22;4097;47.812;12.374;2022-11-28T09:16:17;3.80;99.90
8109;DHT22;4097;47.812;12.374;2022-11-28T09:18:47;3.70;99.90
8109;DHT22;4097;47.812;12.374;2022-11-28T09:21:16;3.80;99.90
8109;DHT22;4097;47.812;12.374;2022-11-28T09:23:45;3.80;99.90
8109;DHT22;4097;47.812;12.374;2022-11-28T09:26:14;3.90;99.90
8109;DHT22;4097;47.812;12.374;2022-11-28T09:28:47;3.90;99.90
8109;DHT22;4097;47.812;12.374;2022-11-28T09:31:15;3.90;99.90
8109;DHT22;4097;47.812;12.374;2022-11-28T09:33:43;3.90;99.90
8109;DHT22;4097;47.812;12.374;2022-11-28T09:36:12;4.00;99.90
8109;DHT22;4097;47.812;12.374;2022-11-28T09:38:50;4.00;99.90
8109;DHT22;4097;47.812;12.374;2022-11-28T09:41:42;4.00;99.90
8109;DHT22;4097;47.812;12.374;2022-11-28T09:44:17;4.10;99.90
8109;DHT22;4097;47.812;12.374;2022-11-28T09:46:45;4.20;99.90
8109;DHT22;4097;47.812;12.374;2022-11-28T09:49:29;4.20;99.90
8109;DHT22;4097;47.812;12.374;2022-11-28T09:52:04;4.30;99.90
8109;DHT22;4097;47.812;12.374;2022-11-28T09:54:39;4.40;99.90
8109;DHT22;4097;47.812;12.374;2022-11-28T09:57:14;4.40;99.90
8109;DHT22;4097;47.812;12.374;2022-11-28T09:59:49;4.40;99.90
8109;DHT22;4097;47.812;12.374;2022-11-28T10:02:22;4.50;99.90
8109;DHT22;4097;47.812;12.374;2022-11-28T10:05:01;4.50;99.90
8109;DHT22;4097;47.812;12.374;2022-11-28T10:07:40;4.60;99.90
8109;DHT22;4097;47.812;12.374;2022-11-28T10:10:35;4.50;99.90
8109;DHT22;4097;47.812;12.374;2022-11-28T10:13:11;4.50;99.90
8109;DHT22;4097;47.812;12.374;2022-11-28T10:15:45;4.50;99.90
8109;DHT22;4097;47.812;12.374;2022-11-28T10:18:30;4.50;99.90
8109;DHT22;4097;47.812;12.374;2022-11-28T10:21:10;4.50;99.90
8109;DHT22;4097;47.812;12.374;2022-11-28T10:23:42;4.50;99.90
8109;DHT22;4097;47.812;12.374;2022-11-28T10:26:17;4.60;99.90
8109;DHT22;4097;47.812;12.374;2022-11-28T10:29:10;4.60;99.90
8109;DHT22;4097;47.812;12.374;2022-11-28T10:31:44;4.60;99.90
8109;DHT22;4097;47.812;12.374;2022-11-28T10:34:16;4.70;99.90
8109;DHT22;4097;47.812;12.374;2022-11-28T10:36:51;4.60;99.90
8109;DHT22;4097;47.812;12.374;2022-11-28T10:39:25;4.60;99.90
8109;DHT22;4097;47.812;12.374;2022-11-28T10:42:03;4.50;99.90
8109;DHT22;4097;47.812;12.374;2022-11-28T10:44:59;4.60;99.90
8109;DHT22;4097;47.812;12.374;2022-11-28T10:47:54;4.50;99.90
8109;DHT22;4097;47.812;12.374;2022-11-28T10:50:32;4.50;99.90
8109;DHT22;4097;47.812;12.374;2022-11-28T10:53:03;4.60;99.90
8109;DHT22;4097;47.812;12.374;2022-11-28T10:55:42;4.70;99.90
8109;DHT22;4097;47.812;12.374;2022-11-28T10:58:30;4.60;99.90
8109;DHT22;4097;47.812;12.374;2022-11-28T11:01:01;4.70;99.90
8109;DHT22;4097;47.812;12.374;2022-11-28T11:03:31;4.70;99.90
8109;DHT22;4097;47.812;12.374;2022-11-28T11:06:00;4.70;99.90
8109;DHT22;4097;47.812;12.374;2022-11-28T11:08:34;4.80;99.90
8109;DHT22;4097;47.812;12.374;2022-11-28T11:11:04;4.80;99.90
8109;DHT22;4097;47.812;12.374;2022-11-28T11:13:35;4.80;99.90
8109;DHT22;4097;47.812;12.374;2022-11-28T11:16:20;4.80;99.90
8109;DHT22;4097;47.812;12.374;2022-11-28T11:18:54;4.90;99.90
8109;DHT22;4097;47.812;12.374;2022-11-28T11:21:23;4.90;99.90
8109;DHT22;4097;47.812;12.374;2022-11-28T11:24:10;4.90;99.90
8109;DHT22;4097;47.812;12.374;2022-11-28T11:26:40;4.90;99.90
8109;DHT22;4097;47.812;12.374;2022-11-28T11:29:31;5.00;99.90
8109;DHT22;4097;47.812;12.374;2022-11-28T11:32:00;5.10;99.90
8109;DHT22;4097;47.812;12.374;2022-11-28T11:34:35;5.10;99.90
8109;DHT22;4097;47.812;12.374;2022-11-28T11:37:18;5.10;99.90
8109;DHT22;4097;47.812;12.374;2022-11-28T11:39:51;5.10;99.90
8109;DHT22;4097;47.812;12.374;2022-11-28T11:42:20;5.20;99.90
8109;DHT22;4097;47.812;12.374;2022-11-28T11:44:49;5.20;99.90
8109;DHT22;4097;47.812;12.374;2022-11-28T11:47:16;5.30;99.90
8109;DHT22;4097;47.812;12.374;2022-11-28T11:49:49;5.30;99.90
8109;DHT22;4097;47.812;12.374;2022-11-28T11:52:22;5.40;99.90
8109;DHT22;4097;47.812;12.374;2022-11-28T11:54:57;5.40;99.90
8109;DHT22;4097;47.812;12.374;2022-11-28T11:57:30;5.50;99.90
8109;DHT22;4097;47.812;12.374;2022-11-28T12:00:05;5.50;99.90
8109;DHT22;4097;47.812;12.374;2022-11-28T12:02:36;5.50;99.90
8109;DHT22;4097;47.812;12.374;2022-11-28T12:05:09;5.60;99.90
8109;DHT22;4097;47.812;12.374;2022-11-28T12:07:41;5.60;99.90
8109;DHT22;4097;47.812;12.374;2022-11-28T12:10:16;5.70;99.90
8109;DHT22;4097;47.812;12.374;2022-11-28T12:12:45;5.70;99.90
8109;DHT22;4097;47.812;12.374;2022-11-28T12:15:20;5.70;99.90
8109;DHT22;4097;47.812;12.374;2022-11-28T12:18:02;5.70;99.90
8109;DHT22;4097;47.812;12.374;2022-11-28T12:20:46;5.70;99.90
8109;DHT22;4097;47.812;12.374;2022-11-28T12:23:28;5.80;99.90
8109;DHT22;4097;47.812;12.374;2022-11-28T12:26:03;5.80;99.90
8109;DHT22;4097;47.812;12.374;2022-11-28T12:28:47;5.90;99.90
8109;DHT22;4097;47.812;12.374;2022-11-28T12:31:32;5.90;99.90
8109;DHT22;4097;47.812;12.374;2022-11-28T12:34:10;5.90;99.90
8109;DHT22;4097;47.812;12.374;2022-11-28T12:36:42;5.90;99.90
8109;DHT22;4097;47.812;12.374;2022-11-28T12:39:28;5.90;99.90
8109;DHT22;4097;47.812;12.374;2022-11-28T12:45:10;6.00;99.90
8109;DHT22;4097;47.812;12.374;2022-11-28T12:47:50;6.00;99.90
8109;DHT22;4097;47.812;12.374;2022-11-28T12:50:33;6.10;99.90
8109;DHT22;4097;47.812;12.374;2022-11-28T12:53:25;6.10;99.90
8109;DHT22;4097;47.812;12.374;2022-11-28T12:56:01;6.10;99.90
8109;DHT22;4097;47.812;12.374;2022-11-28T12:58:42;6.20;99.90
8109;DHT22;4097;47.812;12.374;2022-11-28T13:01:25;6.20;99.90
8109;DHT22;4097;47.812;12.374;2022-11-28T13:04:03;6.20;99.90
8109;DHT22;4097;47.812;12.374;2022-11-28T13:06:37;6.20;99.90
8109;DHT22;4097;47.812;12.374;2022-11-28T13:09:28;6.20;99.90
8109;DHT22;4097;47.812;12.374;2022-11-28T13:12:05;6.30;99.90
8109;DHT22;4097;47.812;12.374;2022-11-28T13:14:43;6.20;99.90
8109;DHT22;4097;47.812;12.374;2022-11-28T13:17:21;6.20;99.90
8109;DHT22;4097;47.812;12.374;2022-11-28T13:20:06;6.30;99.90
8109;DHT22;4097;47.812;12.374;2022-11-28T13:22:46;6.30;99.90
8109;DHT22;4097;47.812;12.374;2022-11-28T13:25:21;6.30;99.90
8109;DHT22;4097;47.812;12.374;2022-11-28T13:27:57;6.30;99.90
8109;DHT22;4097;47.812;12.374;2022-11-28T13:30:31;6.30;99.90
8109;DHT22;4097;47.812;12.374;2022-11-28T13:33:07;6.30;99.90
8109;DHT22;4097;47.812;12.374;2022-11-28T13:35:43;6.30;99.90
8109;DHT22;4097;47.812;12.374;2022-11-28T13:38:38;6.30;99.90
8109;DHT22;4097;47.812;12.374;2022-11-28T13:41:12;6.30;99.90
8109;DHT22;4097;47.812;12.374;2022-11-28T13:43:46;6.30;99.90
8109;DHT22;4097;47.812;12.374;2022-11-28T13:46:17;6.30;99.90
8109;DHT22;4097;47.812;12.374;2022-11-28T13:48:59;6.30;99.90
8109;DHT22;4097;47.812;12.374;2022-11-28T13:51:30;6.40;99.90
8109;DHT22;4097;47.812;12.374;2022-11-28T13:57:28;6.40;99.90
8109;DHT22;4097;47.812;12.374;2022-11-28T14:00:05;6.40;99.90
8109;DHT22;4097;47.812;12.374;2022-11-28T14:02:39;6.30;99.90
8109;DHT22;4097;47.812;12.374;2022-11-28T14:05:26;6.30;99.90
8109;DHT22;4097;47.812;12.374;2022-11-28T14:07:55;6.30;99.90
8109;DHT22;4097;47.812;12.374;2022-11-28T14:10:48;6.40;99.90
8109;DHT22;4097;47.812;12.374;2022-11-28T14:13:31;6.30;99.90
8109;DHT22;4097;47.812;12.374;2022-11-28T14:16:12;6.30;99.90
8109;DHT22;4097;47.812;12.374;2022-11-28T14:19:03;6.30;99.90
8109;DHT22;4097;47.812;12.374;2022-11-28T14:21:42;6.30;99.90
8109;DHT22;4097;47.812;12.374;2022-11-28T14:24:16;6.30;99.90
8109;DHT22;4097;47.812;12.374;2022-11-28T14:26:45;6.30;99.90
8109;DHT22;4097;47.812;12.374;2022-11-28T14:29:23;6.30;99.90
8109;DHT22;4097;47.812;12.374;2022-11-28T14:31:52;6.20;99.90
8109;DHT22;4097;47.812;12.374;2022-11-28T14:34:38;6.20;99.90
8109;DHT22;4097;47.812;12.374;2022-11-28T14:43:34;6.20;99.90
8109;DHT22;4097;47.812;12.374;2022-11-28T14:46:21;6.20;99.90
8109;DHT22;4097;47.812;12.374;2022-11-28T14:49:15;6.20;99.90
8109;DHT22;4097;47.812;12.374;2022-11-28T14:52:18;6.20;99.90
8109;DHT22;4097;47.812;12.374;2022-11-28T14:54:46;6.20;99.90
8109;DHT22;4097;47.812;12.374;2022-11-28T14:57:17;6.20;99.90
8109;DHT22;4097;47.812;12.374;2022-11-28T14:59:53;6.20;99.90
8109;DHT22;4097;47.812;12.374;2022-11-28T15:02:45;6.20;99.90
8109;DHT22;4097;47.812;12.374;2022-11-28T15:05:26;6.20;99.90
8109;DHT22;4097;47.812;12.374;2022-11-28T15:08:47;6.20;99.90
8109;DHT22;4097;47.812;12.374;2022-11-28T15:11:28;6.20;99.90
8109;DHT22;4097;47.812;12.374;2022-11-28T15:14:06;6.20;99.90
8109;DHT22;4097;47.812;12.374;2022-11-28T15:16:37;6.20;99.90
8109;DHT22;4097;47.812;12.374;2022-11-28T15:19:10;6.10;99.90
8109;DHT22;4097;47.812;12.374;2022-11-28T15:21:43;6.10;99.90
8109;DHT22;4097;47.812;12.374;2022-11-28T15:24:25;6.10;99.90
8109;DHT22;4097;47.812;12.374;2022-11-28T15:26:54;6.10;99.90
8109;DHT22;4097;47.812;12.374;2022-11-28T15:29:26;6.10;99.90
8109;DHT22;4097;47.812;12.374;2022-11-28T15:31:56;6.10;99.90
8109;DHT22;4097;47.812;12.374;2022-11-28T15:34:25;6.10;99.90
8109;DHT22;4097;47.812;12.374;2022-11-28T15:36:55;6.10;99.90
8109;DHT22;4097;47.812;12.374;2022-11-28T15:39:32;6.10;99.90
8109;DHT22;4097;47.812;12.374;2022-11-28T15:42:01;6.10;99.90
8109;DHT22;4097;47.812;12.374;2022-11-28T15:44:30;6.10;99.90
8109;DHT22;4097;47.812;12.374;2022-11-28T15:46:58;6.10;99.90
8109;DHT22;4097;47.812;12.374;2022-11-28T15:49:33;6.10;99.90
8109;DHT22;4097;47.812;12.374;2022-11-28T15:52:02;6.10;99.90
8109;DHT22;4097;47.812;12.374;2022-11-28T15:54:35;6.00;99.90
8109;DHT22;4097;47.812;12.374;2022-11-28T15:57:03;6.00;99.90
8109;DHT22;4097;47.812;12.374;2022-11-28T15:59:33;6.00;99.90
8109;DHT22;4097;47.812;12.374;2022-11-28T16:02:11;6.00;99.90
8109;DHT22;4097;47.812;12.374;2022-11-28T16:04:40;5.90;99.90
8109;DHT22;4097;47.812;12.374;2022-11-28T16:07:12;5.90;99.90
8109;DHT22;4097;47.812;12.374;2022-11-28T16:09:57;5.90;99.90
8109;DHT22;4097;47.812;12.374;2022-11-28T16:12:25;5.90;99.90
8109;DHT22;4097;47.812;12.374;2022-11-28T16:14:53;5.90;99.90
8109;DHT22;4097;47.812;12.374;2022-11-28T16:17:30;5.90;99.90
8109;DHT22;4097;47.812;12.374;2022-11-28T16:20:04;5.90;99.90
8109;DHT22;4097;47.812;12.374;2022-11-28T16:22:35;5.90;99.90
8109;DHT22;4097;47.812;12.374;2022-11-28T16:25:18;5.90;99.90
8109;DHT22;4097;47.812;12.374;2022-11-28T16:27:46;5.80;99.90
8109;DHT22;4097;47.812;12.374;2022-11-28T16:30:34;5.80;99.90
8109;DHT22;4097;47.812;12.374;2022-11-28T16:33:35;5.80;99.90
8109;DHT22;4097;47.812;12.374;2022-11-28T16:36:10;5.80;99.90
8109;DHT22;4097;47.812;12.374;2022-11-28T16:39:02;5.80;99.90
8109;DHT22;4097;47.812;12.374;2022-11-28T16:41:30;5.80;99.90
8109;DHT22;4097;47.812;12.374;2022-11-28T16:43:59;5.80;99.90
8109;DHT22;4097;47.812;12.374;2022-11-28T16:46:31;5.80;99.90
8109;DHT22;4097;47.812;12.374;2022-11-28T16:49:04;5.80;99.90
8109;DHT22;4097;47.812;12.374;2022-11-28T16:51:36;5.80;99.90
8109;DHT22;4097;47.812;12.374;2022-11-28T16:54:36;5.80;99.90